createdAt,value
2017-12-26T00:00:36.293Z,28.70
2017-12-26T00:03:05.858Z,26.12
2017-12-26T00:05:35.660Z,25.48
2017-12-26T00:08:05.479Z,23.30
2017-12-26T00:10:35.323Z,24.30
2017-12-26T00:13:05.178Z,22.70
2017-12-26T00:15:35.026Z,19.73
2017-12-26T00:18:04.870Z,19.20
2017-12-26T00:20:34.683Z,19.25
2017-12-26T00:23:04.507Z,16.95
2017-12-26T00:25:34.325Z,18.98
2017-12-26T00:28:04.131Z,16.70
2017-12-26T00:30:33.958Z,15.90
2017-12-26T00:33:03.770Z,14.65
2017-12-26T00:35:33.586Z,14.25
2017-12-26T00:38:03.418Z,13.82
2017-12-26T00:40:33.237Z,15.98
2017-12-26T00:43:03.097Z,12.93
2017-12-26T00:45:32.913Z,13.07
2017-12-26T00:48:02.711Z,13.10
2017-12-26T00:50:32.523Z,13.13
2017-12-26T00:53:02.336Z,13.30
2017-12-26T00:55:32.156Z,13.93
2017-12-26T00:58:01.973Z,12.20
2017-12-26T01:00:31.801Z,13.90
2017-12-26T01:03:01.673Z,11.43
2017-12-26T01:05:31.486Z,12.55
2017-12-26T01:08:01.292Z,13.85
2017-12-26T01:10:31.127Z,11.88
2017-12-26T01:13:01.048Z,11.60
2017-12-26T01:15:30.898Z,10.55
2017-12-26T01:18:00.717Z,10.55
2017-12-26T01:20:30.537Z,9.63
2017-12-26T01:23:00.333Z,10.73
2017-12-26T01:25:30.187Z,10.65
2017-12-26T01:28:00.011Z,8.93
2017-12-26T01:30:29.797Z,8.70
2017-12-26T01:32:59.588Z,8.45
2017-12-26T01:35:29.156Z,8.75
2017-12-26T01:37:58.962Z,8.02
2017-12-26T01:40:29.005Z,8.32
2017-12-26T01:42:58.713Z,9.45
2017-12-26T01:45:28.272Z,10.00
2017-12-26T01:47:58.083Z,8.60
2017-12-26T01:50:27.917Z,9.45
2017-12-26T01:52:57.724Z,8.23
2017-12-26T01:55:27.544Z,8.18
2017-12-26T01:57:57.357Z,7.80
2017-12-26T02:00:27.371Z,9.18
2017-12-26T02:02:58.376Z,7.68
2017-12-26T02:05:28.189Z,7.80
2017-12-26T02:07:58.006Z,8.40
2017-12-26T02:10:27.818Z,9.65
2017-12-26T02:12:57.636Z,9.18
2017-12-26T02:15:27.382Z,9.48
2017-12-26T02:17:57.199Z,9.50
2017-12-26T02:20:27.012Z,8.93
2017-12-26T02:22:57.014Z,9.00
2017-12-26T02:25:26.833Z,8.90
2017-12-26T02:27:56.644Z,9.65
2017-12-26T02:30:26.469Z,9.90
2017-12-26T02:32:56.304Z,9.05
2017-12-26T02:35:26.126Z,9.52
2017-12-26T02:37:55.613Z,10.77
2017-12-26T02:40:25.434Z,11.05
2017-12-26T02:42:55.233Z,10.52
2017-12-26T02:45:25.082Z,9.10
2017-12-26T02:47:55.057Z,9.45
2017-12-26T02:50:28.840Z,11.32
2017-12-26T02:52:58.662Z,11.85
2017-12-26T02:55:28.469Z,12.07
2017-12-26T02:57:58.305Z,12.98
2017-12-26T03:00:28.126Z,11.68
2017-12-26T03:02:57.928Z,11.57
2017-12-26T03:05:27.733Z,10.63
2017-12-26T03:07:57.569Z,11.55
2017-12-26T03:10:27.387Z,11.70
2017-12-26T03:12:57.194Z,11.15
2017-12-26T03:15:27.026Z,10.50
2017-12-26T03:17:56.812Z,11.43
2017-12-26T03:20:26.673Z,14.23
2017-12-26T03:22:56.474Z,12.52
2017-12-26T03:25:26.304Z,12.80
2017-12-26T03:27:56.126Z,10.93
2017-12-26T03:30:25.482Z,11.45
2017-12-26T03:32:55.605Z,11.32
2017-12-26T03:35:25.412Z,11.38
2017-12-26T03:37:55.500Z,10.23
2017-12-26T03:40:25.336Z,11.93
2017-12-26T03:42:55.167Z,10.55
2017-12-26T03:45:25.052Z,11.93
2017-12-26T03:47:54.861Z,13.52
2017-12-26T03:50:24.687Z,12.57
2017-12-26T03:52:54.493Z,11.65
2017-12-26T03:55:24.299Z,14.07
2017-12-26T03:57:54.124Z,14.75
2017-12-26T04:00:24.069Z,12.23
2017-12-26T04:02:53.619Z,13.88
2017-12-26T04:05:23.440Z,11.60
2017-12-26T04:07:53.251Z,12.27
2017-12-26T04:10:23.062Z,13.93
2017-12-26T04:12:52.861Z,14.50
2017-12-26T04:15:23.519Z,11.15
2017-12-26T04:17:53.319Z,13.95
2017-12-26T04:20:23.151Z,12.13
2017-12-26T04:22:56.903Z,14.23
2017-12-26T04:25:26.746Z,12.45
2017-12-26T04:27:56.556Z,11.15
2017-12-26T04:30:26.364Z,11.10
2017-12-26T04:32:56.194Z,11.00
2017-12-26T04:35:26.017Z,13.10
2017-12-26T04:37:55.842Z,11.82
2017-12-26T04:40:25.672Z,10.63
2017-12-26T04:42:55.482Z,12.18
2017-12-26T04:45:25.294Z,10.60
2017-12-26T04:47:55.460Z,10.75
2017-12-26T04:50:25.256Z,10.93
2017-12-26T04:52:55.071Z,9.57
2017-12-26T04:55:24.901Z,8.90
2017-12-26T04:57:54.708Z,8.88
2017-12-26T05:00:24.516Z,9.93
2017-12-26T05:02:54.088Z,8.65
2017-12-26T05:05:23.896Z,9.82
2017-12-26T05:07:53.715Z,9.68
2017-12-26T05:10:23.536Z,9.60
2017-12-26T05:12:53.352Z,10.20
2017-12-26T05:15:23.144Z,9.15
2017-12-26T05:17:52.971Z,10.88
2017-12-26T05:20:23.356Z,11.50
2017-12-26T05:22:53.198Z,10.27
2017-12-26T05:25:23.014Z,10.50
2017-12-26T05:27:52.894Z,10.77
2017-12-26T05:30:22.738Z,9.90
2017-12-26T05:32:52.540Z,9.63
2017-12-26T05:35:22.355Z,10.27
2017-12-26T05:37:52.166Z,9.40
2017-12-26T05:40:21.965Z,9.70
2017-12-26T05:42:51.796Z,9.40
2017-12-26T05:45:21.600Z,9.80
2017-12-26T05:47:51.410Z,9.35
2017-12-26T05:50:21.199Z,9.07
2017-12-26T05:52:51.006Z,8.65
2017-12-26T05:55:20.825Z,8.23
2017-12-26T05:57:50.653Z,8.10
2017-12-26T06:00:20.495Z,7.15
2017-12-26T06:02:50.292Z,8.05
2017-12-26T06:05:20.114Z,6.90
2017-12-26T06:07:49.931Z,7.85
2017-12-26T06:10:19.735Z,8.32
2017-12-26T06:12:49.550Z,7.62
2017-12-26T06:15:19.344Z,7.40
2017-12-26T06:17:49.170Z,8.02
2017-12-26T06:20:18.951Z,8.27
2017-12-26T06:22:48.742Z,9.90
2017-12-26T06:25:18.585Z,10.30
2017-12-26T06:27:48.538Z,9.70
2017-12-26T06:30:18.367Z,9.68
2017-12-26T06:32:48.187Z,9.95
2017-12-26T06:35:18.067Z,8.75
2017-12-26T06:37:47.972Z,9.07
2017-12-26T06:40:17.785Z,10.88
2017-12-26T06:42:47.341Z,10.68
2017-12-26T06:45:17.171Z,10.32
2017-12-26T06:47:47.013Z,9.40
2017-12-26T06:50:16.872Z,11.18
2017-12-26T06:52:46.681Z,9.95
2017-12-26T06:55:16.513Z,10.30
2017-12-26T06:57:46.383Z,10.32
2017-12-26T07:00:16.209Z,9.90
2017-12-26T07:02:46.042Z,11.18
2017-12-26T07:05:15.832Z,10.88
2017-12-26T07:07:45.641Z,9.55
2017-12-26T07:10:15.447Z,9.73
2017-12-26T07:12:45.264Z,9.93
2017-12-26T07:15:15.053Z,8.40
2017-12-26T07:17:44.900Z,9.65
2017-12-26T07:20:20.174Z,9.48
2017-12-26T07:22:50.398Z,8.93
2017-12-26T07:25:20.215Z,9.48
2017-12-26T07:27:49.933Z,9.93
2017-12-26T07:30:19.729Z,10.27
2017-12-26T07:32:49.305Z,9.77
2017-12-26T07:35:19.127Z,9.85
2017-12-26T07:37:49.026Z,9.85
2017-12-26T07:40:18.834Z,9.93
2017-12-26T07:42:48.667Z,9.40
2017-12-26T07:45:18.471Z,12.60
2017-12-26T07:47:48.322Z,12.02
2017-12-26T07:50:18.100Z,12.57
2017-12-26T07:52:47.906Z,12.18
2017-12-26T07:55:17.726Z,11.25
2017-12-26T07:57:47.542Z,13.88
2017-12-26T08:00:17.166Z,11.50
2017-12-26T08:02:47.003Z,12.90
2017-12-26T08:05:16.826Z,15.32
2017-12-26T08:07:46.634Z,16.80
2017-12-26T08:10:16.469Z,15.20
2017-12-26T08:12:46.298Z,14.85
2017-12-26T08:15:16.104Z,16.85
2017-12-26T08:17:45.927Z,14.80
2017-12-26T08:20:15.796Z,15.35
2017-12-26T08:22:45.599Z,16.00
2017-12-26T08:25:15.413Z,15.73
2017-12-26T08:27:45.212Z,14.55
2017-12-26T08:30:15.035Z,14.45
2017-12-26T08:32:44.807Z,15.05
2017-12-26T08:35:14.636Z,13.60
2017-12-26T08:37:44.435Z,15.75
2017-12-26T08:40:14.253Z,15.02
2017-12-26T08:42:44.066Z,15.63
2017-12-26T08:45:13.906Z,15.95
2017-12-26T08:47:44.679Z,18.33
2017-12-26T08:50:14.470Z,17.52
2017-12-26T08:52:44.598Z,18.80
2017-12-26T08:55:14.429Z,19.10
2017-12-26T08:57:44.271Z,19.05
2017-12-26T09:00:14.841Z,17.95
2017-12-26T09:02:44.418Z,18.67
2017-12-26T09:05:14.439Z,17.10
2017-12-26T09:07:44.308Z,20.40
2017-12-26T09:10:14.169Z,18.92
2017-12-26T09:12:44.056Z,18.85
2017-12-26T09:15:13.833Z,18.80
2017-12-26T09:17:43.644Z,21.67
2017-12-26T09:20:13.454Z,19.45
2017-12-26T09:22:43.275Z,22.02
2017-12-26T09:25:13.109Z,19.92
2017-12-26T09:27:42.943Z,21.65
2017-12-26T09:30:12.728Z,20.90
2017-12-26T09:32:42.585Z,24.45
2017-12-26T09:35:12.372Z,25.73
2017-12-26T09:37:42.024Z,24.92
2017-12-26T09:40:11.816Z,26.50
2017-12-26T09:42:41.627Z,24.95
2017-12-26T09:45:11.456Z,26.35
2017-12-26T09:47:41.257Z,26.77
2017-12-26T09:50:11.067Z,28.17
2017-12-26T09:52:40.897Z,31.40
2017-12-26T09:55:10.713Z,29.77
2017-12-26T09:57:40.539Z,27.13
2017-12-26T10:00:10.440Z,25.83
2017-12-26T10:02:40.236Z,25.70
2017-12-26T10:05:10.650Z,24.05
2017-12-26T10:07:40.490Z,22.92
2017-12-26T10:10:10.366Z,25.55
2017-12-26T10:12:40.162Z,26.27
2017-12-26T10:15:10.013Z,23.70
2017-12-26T10:17:39.837Z,25.25
2017-12-26T10:20:09.662Z,24.77
2017-12-26T10:22:39.528Z,23.77
2017-12-26T10:25:09.352Z,22.25
2017-12-26T10:27:39.306Z,26.00
2017-12-26T10:30:09.119Z,25.85
2017-12-26T10:32:38.972Z,24.80
2017-12-26T10:35:08.791Z,23.12
2017-12-26T10:37:38.618Z,24.73
2017-12-26T10:40:08.433Z,23.05
2017-12-26T10:42:38.245Z,24.42
2017-12-26T10:45:08.062Z,22.60
2017-12-26T10:47:38.294Z,20.58
2017-12-26T10:50:08.101Z,21.80
2017-12-26T10:52:37.962Z,21.23
2017-12-26T10:55:08.310Z,21.27
2017-12-26T10:57:38.163Z,21.02
2017-12-26T11:00:08.006Z,20.62
2017-12-26T11:02:37.561Z,21.73
2017-12-26T11:05:07.427Z,21.00
2017-12-26T11:07:38.304Z,21.45
2017-12-26T11:10:08.139Z,20.92
2017-12-26T11:12:38.003Z,20.98
2017-12-26T11:15:07.811Z,20.42
2017-12-26T11:17:37.606Z,20.65
2017-12-26T11:20:07.403Z,21.05
2017-12-26T11:22:37.212Z,19.02
2017-12-26T11:25:07.017Z,20.92
2017-12-26T11:27:40.986Z,19.52
2017-12-26T11:30:10.809Z,19.40
2017-12-26T11:32:40.640Z,20.40
2017-12-26T11:35:10.473Z,18.35
2017-12-26T11:37:40.315Z,19.00
2017-12-26T11:40:10.138Z,17.65
2017-12-26T11:42:40.358Z,22.55
2017-12-26T11:45:10.170Z,21.73
2017-12-26T11:47:40.009Z,19.80
2017-12-26T11:50:09.814Z,21.50
2017-12-26T11:52:39.642Z,20.70
2017-12-26T11:55:09.459Z,20.52
2017-12-26T11:57:39.701Z,20.77
2017-12-26T12:00:09.823Z,19.80
2017-12-26T12:02:39.648Z,20.60
2017-12-26T12:05:10.192Z,19.42
2017-12-26T12:07:40.010Z,19.52
2017-12-26T12:10:09.821Z,19.98
2017-12-26T12:12:39.659Z,19.27
2017-12-26T12:15:09.548Z,18.33
2017-12-26T12:17:39.389Z,19.10
2017-12-26T12:20:09.254Z,17.98
2017-12-26T12:22:39.066Z,17.25
2017-12-26T12:25:08.909Z,18.23
2017-12-26T12:27:38.989Z,18.60
2017-12-26T12:30:08.891Z,16.65
2017-12-26T12:32:38.716Z,18.20
2017-12-26T12:35:08.552Z,19.15
2017-12-26T12:37:38.464Z,17.08
2017-12-26T12:40:08.560Z,17.77
2017-12-26T12:42:38.391Z,17.10
2017-12-26T12:45:08.240Z,17.90
2017-12-26T12:47:38.074Z,19.05
2017-12-26T12:50:08.009Z,18.62
2017-12-26T12:52:37.839Z,19.20
2017-12-26T12:55:07.667Z,18.37
2017-12-26T12:57:37.490Z,20.42
2017-12-26T13:00:07.458Z,19.75
2017-12-26T13:02:37.320Z,19.37
2017-12-26T13:05:07.178Z,20.58
2017-12-26T13:07:37.019Z,18.25
2017-12-26T13:10:06.858Z,19.83
2017-12-26T13:12:36.711Z,20.27
2017-12-26T13:15:06.726Z,21.02
2017-12-26T13:17:36.564Z,20.98
2017-12-26T13:20:06.371Z,20.62
2017-12-26T13:22:36.215Z,20.42
2017-12-26T13:25:06.050Z,19.02
2017-12-26T13:27:35.860Z,24.12
2017-12-26T13:30:05.690Z,23.35
2017-12-26T13:32:35.516Z,21.75
2017-12-26T13:35:05.313Z,24.17
2017-12-26T13:37:35.172Z,21.45
2017-12-26T13:40:04.986Z,23.95
2017-12-26T13:42:34.563Z,24.30
2017-12-26T13:45:04.409Z,22.50
2017-12-26T13:47:34.257Z,21.20
2017-12-26T13:50:04.069Z,22.62
2017-12-26T13:52:33.879Z,21.48
2017-12-26T13:55:03.770Z,22.83
2017-12-26T13:57:33.648Z,21.60
2017-12-26T14:00:03.247Z,24.42
2017-12-26T14:02:33.084Z,25.70
2017-12-26T14:05:02.921Z,27.08
2017-12-26T14:07:32.785Z,34.10
2017-12-26T14:10:02.629Z,38.83
2017-12-26T14:12:32.475Z,36.60
2017-12-26T14:15:02.317Z,44.67
2017-12-26T14:17:32.191Z,41.40
2017-12-26T14:20:02.060Z,45.12
2017-12-26T14:22:31.900Z,44.40
2017-12-26T14:25:01.729Z,43.17
2017-12-26T14:27:31.379Z,50.00
2017-12-26T14:30:01.208Z,47.72
2017-12-26T14:32:31.255Z,48.03
2017-12-26T14:35:01.216Z,44.45
2017-12-26T14:37:31.038Z,44.30
2017-12-26T14:40:00.869Z,47.88
2017-12-26T14:42:30.691Z,47.55
2017-12-26T14:45:00.256Z,49.00
2017-12-26T14:47:30.106Z,51.37
2017-12-26T14:49:59.953Z,52.40
2017-12-26T14:52:29.848Z,52.35
2017-12-26T14:54:59.687Z,52.70
2017-12-26T14:57:29.502Z,55.58
2017-12-26T14:59:59.349Z,54.88
2017-12-26T15:02:29.173Z,53.40
2017-12-26T15:04:58.806Z,48.80
2017-12-26T15:07:28.605Z,57.13
2017-12-26T15:09:58.427Z,58.67
2017-12-26T15:12:28.243Z,58.90
2017-12-26T15:14:58.086Z,49.58
2017-12-26T15:17:27.721Z,56.28
2017-12-26T15:19:57.581Z,52.25
2017-12-26T15:22:27.244Z,44.88
2017-12-26T15:24:57.069Z,49.28
2017-12-26T15:27:26.706Z,46.60
2017-12-26T15:29:56.537Z,40.67
2017-12-26T15:32:26.386Z,42.20
2017-12-26T15:34:56.257Z,40.83
2017-12-26T15:37:26.085Z,32.58
2017-12-26T15:39:55.909Z,31.60
2017-12-26T15:42:25.734Z,30.65
2017-12-26T15:44:55.547Z,20.35
2017-12-26T15:47:25.164Z,19.23
2017-12-26T15:49:55.035Z,18.80
2017-12-26T15:52:25.451Z,17.23
2017-12-26T15:54:55.281Z,17.17
2017-12-26T15:57:25.116Z,19.80
2017-12-26T15:59:54.937Z,18.50
2017-12-26T16:02:24.795Z,19.80
2017-12-26T16:04:54.623Z,21.67
2017-12-26T16:07:24.272Z,21.02
2017-12-26T16:09:54.412Z,19.80
2017-12-26T16:12:24.236Z,17.75
2017-12-26T16:14:54.049Z,18.80
2017-12-26T16:17:23.875Z,17.83
2017-12-26T16:19:54.040Z,19.98
2017-12-26T16:22:24.063Z,19.85
2017-12-26T16:24:53.874Z,20.37
2017-12-26T16:27:23.693Z,18.55
2017-12-26T16:29:53.623Z,16.05
2017-12-26T16:32:23.501Z,17.10
2017-12-26T16:34:53.310Z,17.98
2017-12-26T16:37:23.160Z,16.27
2017-12-26T16:39:52.998Z,18.23
2017-12-26T16:42:23.209Z,18.23
2017-12-26T16:44:53.162Z,16.95
2017-12-26T16:47:23.122Z,17.20
2017-12-26T16:49:52.920Z,14.30
2017-12-26T16:52:22.816Z,17.52
2017-12-26T16:54:52.628Z,17.85
2017-12-26T16:57:23.086Z,17.95
2017-12-26T16:59:52.927Z,18.77
2017-12-26T17:02:22.777Z,12.82
2017-12-26T17:04:52.584Z,17.12
2017-12-26T17:07:22.393Z,16.30
2017-12-26T17:09:52.224Z,14.95
2017-12-26T17:12:23.079Z,16.33
2017-12-26T17:14:52.977Z,17.23
2017-12-26T17:17:22.986Z,15.90
2017-12-26T17:19:52.893Z,15.27
2017-12-26T17:22:22.818Z,16.35
2017-12-26T17:24:52.488Z,14.55
2017-12-26T17:27:22.319Z,12.70
2017-12-26T17:29:52.174Z,13.77
2017-12-26T17:32:21.986Z,14.05
2017-12-26T17:34:51.805Z,16.30
2017-12-26T17:37:21.593Z,14.87
2017-12-26T17:39:51.400Z,15.18
2017-12-26T17:42:21.239Z,15.65
2017-12-26T17:44:50.968Z,16.00
2017-12-26T17:47:21.185Z,15.93
2017-12-26T17:49:51.024Z,15.40
2017-12-26T17:52:20.853Z,16.95
2017-12-26T17:54:50.676Z,15.60
2017-12-26T17:57:20.549Z,15.93
2017-12-26T17:59:50.156Z,15.60
2017-12-26T18:02:19.966Z,15.80
2017-12-26T18:04:49.625Z,17.87
2017-12-26T18:07:19.869Z,17.70
2017-12-26T18:09:49.723Z,17.25
2017-12-26T18:12:19.573Z,16.02
2017-12-26T18:14:49.411Z,16.62
2017-12-26T18:17:19.248Z,16.90
2017-12-26T18:19:49.087Z,17.62
2017-12-26T18:22:18.928Z,17.67
2017-12-26T18:24:48.761Z,20.95
2017-12-26T18:27:18.581Z,20.98
2017-12-26T18:29:48.411Z,25.83
2017-12-26T18:32:18.225Z,25.77
2017-12-26T18:34:48.084Z,24.23
2017-12-26T18:37:18.256Z,24.80
2017-12-26T18:39:48.088Z,27.40
2017-12-26T18:42:17.935Z,27.05
2017-12-26T18:44:47.724Z,24.58
2017-12-26T18:47:17.722Z,21.70
2017-12-26T18:49:47.240Z,23.40
2017-12-26T18:52:17.051Z,19.65
2017-12-26T18:54:46.893Z,22.02
2017-12-26T18:57:16.607Z,22.33
2017-12-26T18:59:46.417Z,20.35
2017-12-26T19:02:16.348Z,21.60
2017-12-26T19:04:46.184Z,23.42
2017-12-26T19:07:16.049Z,22.85
2017-12-26T19:09:45.938Z,20.60
2017-12-26T19:12:15.752Z,21.35
2017-12-26T19:14:45.656Z,20.25
2017-12-26T19:17:15.570Z,20.25
2017-12-26T19:19:45.430Z,19.90
2017-12-26T19:22:15.280Z,21.98
2017-12-26T19:24:45.100Z,20.95
2017-12-26T19:27:14.934Z,19.23
2017-12-26T19:29:44.895Z,19.77
2017-12-26T19:32:14.747Z,20.33
2017-12-26T19:34:44.571Z,20.40
2017-12-26T19:37:14.445Z,20.95
2017-12-26T19:39:44.259Z,20.50
2017-12-26T19:42:14.078Z,20.90
2017-12-26T19:44:44.348Z,22.42
2017-12-26T19:47:14.160Z,22.92
2017-12-26T19:49:43.977Z,23.17
2017-12-26T19:52:13.789Z,23.77
2017-12-26T19:54:43.617Z,22.55
2017-12-26T19:57:13.507Z,24.50
2017-12-26T19:59:43.344Z,24.70
2017-12-26T20:02:13.195Z,24.83
2017-12-26T20:04:43.015Z,22.65
2017-12-26T20:07:12.851Z,23.33
2017-12-26T20:09:42.678Z,24.42
2017-12-26T20:12:12.493Z,23.45
2017-12-26T20:14:42.302Z,24.75
2017-12-26T20:17:11.952Z,25.60
2017-12-26T20:19:41.762Z,24.27
2017-12-26T20:22:11.594Z,22.87
2017-12-26T20:24:41.817Z,21.87
2017-12-26T20:27:11.436Z,23.45
2017-12-26T20:29:41.056Z,21.87
2017-12-26T20:32:10.928Z,24.48
2017-12-26T20:34:41.202Z,19.25
2017-12-26T20:37:11.052Z,20.62
2017-12-26T20:39:40.956Z,23.02
2017-12-26T20:42:10.803Z,25.02
2017-12-26T20:44:40.705Z,27.50
2017-12-26T20:47:10.552Z,28.52
2017-12-26T20:49:40.453Z,32.33
2017-12-26T20:52:10.315Z,27.37
2017-12-26T20:54:40.139Z,28.58
2017-12-26T20:57:09.981Z,28.90
2017-12-26T20:59:39.876Z,40.08
2017-12-26T21:02:09.751Z,43.67
2017-12-26T21:04:39.589Z,41.70
2017-12-26T21:07:09.462Z,40.70
2017-12-26T21:09:39.309Z,42.45
2017-12-26T21:12:09.130Z,47.03
2017-12-26T21:14:38.939Z,47.00
2017-12-26T21:17:08.777Z,39.40
2017-12-26T21:19:38.655Z,36.20
2017-12-26T21:22:08.991Z,29.15
2017-12-26T21:24:38.808Z,29.98
2017-12-26T21:27:08.634Z,27.98
2017-12-26T21:29:38.456Z,32.35
2017-12-26T21:32:08.281Z,28.98
2017-12-26T21:34:38.152Z,25.92
2017-12-26T21:37:07.996Z,24.87
2017-12-26T21:39:37.901Z,24.83
2017-12-26T21:42:07.711Z,22.58
2017-12-26T21:44:37.573Z,24.25
2017-12-26T21:47:07.421Z,20.92
2017-12-26T21:49:37.240Z,22.23
2017-12-26T21:52:07.050Z,22.52
2017-12-26T21:54:36.878Z,23.45
2017-12-26T21:57:06.700Z,22.10
2017-12-26T21:59:36.573Z,20.00
2017-12-26T22:02:06.390Z,20.98
2017-12-26T22:04:36.094Z,22.25
2017-12-26T22:07:05.913Z,20.70
2017-12-26T22:09:35.733Z,21.65
2017-12-26T22:12:05.240Z,20.85
2017-12-26T22:14:35.067Z,22.83
2017-12-26T22:17:04.888Z,20.67
2017-12-26T22:19:34.778Z,20.65
2017-12-26T22:22:04.598Z,21.02
2017-12-26T22:24:34.427Z,20.10
2017-12-26T22:27:04.251Z,20.23
2017-12-26T22:29:34.087Z,19.05
2017-12-26T22:32:03.917Z,19.50
2017-12-26T22:34:33.761Z,18.02
2017-12-26T22:37:03.349Z,17.27
2017-12-26T22:39:33.160Z,19.23
2017-12-26T22:42:03.001Z,19.30
2017-12-26T22:44:32.811Z,20.98
2017-12-26T22:47:02.625Z,20.67
2017-12-26T22:49:32.427Z,20.27
2017-12-26T22:52:02.228Z,20.52
2017-12-26T22:54:32.030Z,20.30
2017-12-26T22:57:01.850Z,20.90
2017-12-26T22:59:31.658Z,20.20
2017-12-26T23:02:01.480Z,20.77
2017-12-26T23:04:31.289Z,20.77
2017-12-26T23:07:00.935Z,19.40
2017-12-26T23:09:31.293Z,22.52
2017-12-26T23:12:01.144Z,19.42
2017-12-26T23:14:36.297Z,17.48
2017-12-26T23:17:11.516Z,19.05
2017-12-26T23:19:46.975Z,19.58
2017-12-26T23:22:17.119Z,20.35
2017-12-26T23:24:52.383Z,21.48
2017-12-26T23:27:27.598Z,25.98
2017-12-26T23:30:02.633Z,23.60
2017-12-26T23:32:37.790Z,34.35
2017-12-26T23:35:13.101Z,33.83
2017-12-26T23:40:53.060Z,33.58
2017-12-26T23:43:28.437Z,32.13
2017-12-26T23:46:03.685Z,34.58
2017-12-26T23:48:38.824Z,36.25
2017-12-26T23:51:14.113Z,35.25
2017-12-26T23:53:49.372Z,35.80
2017-12-26T23:56:24.852Z,34.30
2017-12-26T23:59:00.095Z,34.30
